Sadah Silver — V7NT8 — position and weather

sailwx.info

Track history (hours):
 
Tides and Currents Weather Stations Pressure Air Temp Water Temp Dewpoint Dewpoint Depression Visibility Wind Speed Wind Dir Waves Ship Positions

Sadah Silver

Last reported at 2017-Nov-23 17:33 UTC. Time now 2017-Dec-12 16:05 UTC.
Position N 36°57' W 124°30'.
Warning: this ship's position is 18 days out of date.

Length 183 m; draft 10 m.

Type: Tanker. MMSI: 538006506.

Date/timePositionNaut miles runAvg speedWind from/ knotsBaromVisibWave heightAir tempDewpointWater temp
2017-Nov-23 17:33N 36°57' W 124°30'112.9
2017-Nov-23 17:28N 36°57' W 124°29'712.8
2017-Nov-23 16:55N 37°00' W 124°21'512.7
2017-Nov-23 16:30N 37°03' W 124°16'3913.1
2017-Nov-23 13:29N 37°21' W 123°32'612.9
2017-Nov-23 13:00N 37°25' W 123°25'612.7
2017-Nov-23 12:30N 37°28' W 123°18'713.1
2017-Nov-23 12:00N 37°31' W 123°11'613.0
2017-Nov-23 11:30N 37°34' W 123°04'713.3
2017-Nov-23 11:01N 37°38' W 122°57'613.0
2017-Nov-23 10:31N 37°41' W 122°50'612.9
2017-Nov-23 10:01N 37°45' W 122°43'4 8.1
2017-Nov-23 09:31N 37°46' W 122°38'510.9
2017-Nov-23 09:01N 37°48' W 122°32'5 9.3
2017-Nov-23 08:31N 37°50' W 122°27'4 8.3
2017-Nov-23 08:01N 37°48' W 122°22'2 4.7
2017-Nov-23 07:29N 37°46' W 122°21'0 0.0
2017-Nov-23 06:59N 37°46' W 122°21'0 0.1
2017-Nov-23 06:29N 37°46' W 122°21'0 0.0
2017-Nov-23 05:59N 37°46' W 122°21'0 0.2
2017-Nov-23 05:29N 37°46' W 122°21'0 0.2
2017-Nov-23 04:59N 37°46' W 122°21'0 0.1
2017-Nov-23 04:29N 37°46' W 122°21'0 0.0
2017-Nov-23 03:59N 37°46' W 122°21'0 0.0
2017-Nov-23 03:29N 37°46' W 122°21'0 0.0
2017-Nov-23 02:59N 37°46' W 122°21'0 0.1
2017-Nov-23 02:29N 37°46' W 122°21'0 0.0
2017-Nov-23 01:59N 37°46' W 122°21'0 0.0
2017-Nov-23 01:29N 37°46' W 122°21'0 0.0
2017-Nov-23 00:59N 37°46' W 122°21'0 0.5
2017-Nov-23 00:30N 37°46' W 122°21'4 7.8
2017-Nov-23 00:00N 37°50' W 122°24'510.5
2017-Nov-22 23:30N 37°54' W 122°27'510.4
2017-Nov-22 23:00N 37°60' W 122°25'510.2
2017-Nov-22 22:30N 38°03' W 122°20'5 9.4
2017-Nov-22 22:00N 38°04' W 122°14'4 8.1
2017-Nov-22 21:29N 38°02' W 122°09'  
2017-Nov-19 08:27N 38°03' W 122°06'0 0.7
2017-Nov-19 08:00N 38°03' W 122°06'3 5.0
2017-Nov-19 07:30N 38°02' W 122°09'611.2
2017-Nov-19 07:00N 38°04' W 122°15'612.7
2017-Nov-19 06:30N 38°02' W 122°23'713.2
2017-Nov-19 06:00N 37°56' W 122°27'612.4
2017-Nov-19 05:30N 37°50' W 122°24'510.0
2017-Nov-19 05:00N 37°48' W 122°30'713.3
2017-Nov-19 04:30N 37°46' W 122°38'4 8.6
2017-Nov-19 04:00N 37°43' W 122°43'2 5.0
2017-Nov-19 03:30N 37°42' W 122°45'3 5.0
2017-Nov-19 03:00N 37°40' W 122°47'3 5.5
2017-Nov-19 02:30N 37°39' W 122°50'2 4.8
2017-Nov-19 02:00N 37°37' W 122°53'3 5.8
2017-Nov-19 01:30N 37°36' W 122°56'3 5.5
2017-Nov-19 01:00N 37°34' W 122°59'3 5.7
2017-Nov-19 00:30N 37°33' W 123°02'510.7
2017-Nov-19 00:00N 37°30' W 123°08'611.8
2017-Nov-18 23:30N 37°26' W 123°13'611.7
2017-Nov-18 23:00N 37°22' W 123°19'712.1
2017-Nov-18 22:27N 37°17' W 123°24'2011.9
2017-Nov-18 20:46N 37°02' W 123°41'311.7
2017-Nov-18 20:29N 37°00' W 123°44'711.8
2017-Nov-18 19:52N 36°55' W 123°51'  
2017-Nov-16 01:22N 30°21' W 123°40'511.3
2017-Nov-16 00:53N 30°17' W 123°35'3511.4
2017-Nov-15 21:49N 29°52' W 123°07'411.5
2017-Nov-15 21:29N 29°49' W 123°04'611.5
2017-Nov-15 20:58N 29°44' W 122°59'611.5
2017-Nov-15 20:27N 29°40' W 122°55'511.3
2017-Nov-15 20:00N 29°37' W 122°51'612.1
2017-Nov-15 19:30N 29°32' W 122°46'611.5
2017-Nov-15 19:00N 29°28' W 122°41'611.1
2017-Nov-15 18:30N 29°24' W 122°37'611.3
2017-Nov-15 18:00N 29°20' W 122°33'1611.3
2017-Nov-15 16:37N 29°08' W 122°21'311.2
2017-Nov-15 16:22N 29°06' W 122°19'411.1
2017-Nov-15 16:00N 29°03' W 122°16'611.3
2017-Nov-15 15:30N 28°59' W 122°11'41611.8
2017-Nov-14 04:08N 23°51' W 116°59'  
Track history (hours):
 
Tides and Currents Weather Stations Pressure Air Temp Water Temp Dewpoint Dewpoint Depression Visibility Wind Speed Wind Dir Waves Ship Positions

Sadah Silver

Last reported at 2017-Nov-23 17:33 UTC. Time now 2017-Dec-12 16:05 UTC.
Position N 36°57' W 124°30'.
Warning: this ship's position is 18 days out of date.

Length 183 m; draft 10 m.

Type: Tanker. MMSI: 538006506.

Date/timePositionNaut miles runAvg speedWind from/ knotsBaromVisibWave heightAir tempDewpointWater temp
2017-Nov-23 17:33N 36°57' W 124°30'112.9
2017-Nov-23 17:28N 36°57' W 124°29'712.8
2017-Nov-23 16:55N 37°00' W 124°21'512.7
2017-Nov-23 16:30N 37°03' W 124°16'3913.1
2017-Nov-23 13:29N 37°21' W 123°32'612.9
2017-Nov-23 13:00N 37°25' W 123°25'612.7
2017-Nov-23 12:30N 37°28' W 123°18'713.1
2017-Nov-23 12:00N 37°31' W 123°11'613.0
2017-Nov-23 11:30N 37°34' W 123°04'713.3
2017-Nov-23 11:01N 37°38' W 122°57'613.0
2017-Nov-23 10:31N 37°41' W 122°50'612.9
2017-Nov-23 10:01N 37°45' W 122°43'4 8.1
2017-Nov-23 09:31N 37°46' W 122°38'510.9
2017-Nov-23 09:01N 37°48' W 122°32'5 9.3
2017-Nov-23 08:31N 37°50' W 122°27'4 8.3
2017-Nov-23 08:01N 37°48' W 122°22'2 4.7
2017-Nov-23 07:29N 37°46' W 122°21'0 0.0
2017-Nov-23 06:59N 37°46' W 122°21'0 0.1
2017-Nov-23 06:29N 37°46' W 122°21'0 0.0
2017-Nov-23 05:59N 37°46' W 122°21'0 0.2
2017-Nov-23 05:29N 37°46' W 122°21'0 0.2
2017-Nov-23 04:59N 37°46' W 122°21'0 0.1
2017-Nov-23 04:29N 37°46' W 122°21'0 0.0
2017-Nov-23 03:59N 37°46' W 122°21'0 0.0
2017-Nov-23 03:29N 37°46' W 122°21'0 0.0
2017-Nov-23 02:59N 37°46' W 122°21'0 0.1
2017-Nov-23 02:29N 37°46' W 122°21'0 0.0
2017-Nov-23 01:59N 37°46' W 122°21'0 0.0
2017-Nov-23 01:29N 37°46' W 122°21'0 0.0
2017-Nov-23 00:59N 37°46' W 122°21'0 0.5
2017-Nov-23 00:30N 37°46' W 122°21'4 7.8
2017-Nov-23 00:00N 37°50' W 122°24'510.5
2017-Nov-22 23:30N 37°54' W 122°27'510.4
2017-Nov-22 23:00N 37°60' W 122°25'510.2
2017-Nov-22 22:30N 38°03' W 122°20'5 9.4
2017-Nov-22 22:00N 38°04' W 122°14'4 8.1
2017-Nov-22 21:29N 38°02' W 122°09'  
2017-Nov-19 08:27N 38°03' W 122°06'0 0.7
2017-Nov-19 08:00N 38°03' W 122°06'3 5.0
2017-Nov-19 07:30N 38°02' W 122°09'611.2
2017-Nov-19 07:00N 38°04' W 122°15'612.7
2017-Nov-19 06:30N 38°02' W 122°23'713.2
2017-Nov-19 06:00N 37°56' W 122°27'612.4
2017-Nov-19 05:30N 37°50' W 122°24'510.0
2017-Nov-19 05:00N 37°48' W 122°30'713.3
2017-Nov-19 04:30N 37°46' W 122°38'4 8.6
2017-Nov-19 04:00N 37°43' W 122°43'2 5.0
2017-Nov-19 03:30N 37°42' W 122°45'3 5.0
2017-Nov-19 03:00N 37°40' W 122°47'3 5.5
2017-Nov-19 02:30N 37°39' W 122°50'2 4.8
2017-Nov-19 02:00N 37°37' W 122°53'3 5.8
2017-Nov-19 01:30N 37°36' W 122°56'3 5.5
2017-Nov-19 01:00N 37°34' W 122°59'3 5.7
2017-Nov-19 00:30N 37°33' W 123°02'510.7
2017-Nov-19 00:00N 37°30' W 123°08'611.8
2017-Nov-18 23:30N 37°26' W 123°13'611.7
2017-Nov-18 23:00N 37°22' W 123°19'712.1
2017-Nov-18 22:27N 37°17' W 123°24'2011.9
2017-Nov-18 20:46N 37°02' W 123°41'311.7
2017-Nov-18 20:29N 37°00' W 123°44'711.8
2017-Nov-18 19:52N 36°55' W 123°51'  
2017-Nov-16 01:22N 30°21' W 123°40'511.3
2017-Nov-16 00:53N 30°17' W 123°35'3511.4
2017-Nov-15 21:49N 29°52' W 123°07'411.5
2017-Nov-15 21:29N 29°49' W 123°04'611.5
2017-Nov-15 20:58N 29°44' W 122°59'611.5
2017-Nov-15 20:27N 29°40' W 122°55'511.3
2017-Nov-15 20:00N 29°37' W 122°51'612.1
2017-Nov-15 19:30N 29°32' W 122°46'611.5
2017-Nov-15 19:00N 29°28' W 122°41'611.1
2017-Nov-15 18:30N 29°24' W 122°37'611.3
2017-Nov-15 18:00N 29°20' W 122°33'1611.3
2017-Nov-15 16:37N 29°08' W 122°21'311.2
2017-Nov-15 16:22N 29°06' W 122°19'411.1
2017-Nov-15 16:00N 29°03' W 122°16'611.3
2017-Nov-15 15:30N 28°59' W 122°11'41611.8
2017-Nov-14 04:08N 23°51' W 116°59'  

Dump ship's entire track history